createdAt,value
2023-12-23T00:02:28.251Z,0.00
2023-12-23T00:05:30.648Z,0.05
2023-12-23T00:08:32.986Z,0.08
2023-12-23T00:11:35.335Z,0.00
2023-12-23T00:14:37.607Z,0.00
2023-12-23T00:17:39.991Z,0.10
2023-12-23T00:20:42.420Z,0.00
2023-12-23T00:23:44.734Z,0.00
2023-12-23T00:26:46.947Z,0.10
2023-12-23T00:29:49.202Z,0.10
2023-12-23T00:32:52.466Z,0.00
2023-12-23T00:35:54.818Z,0.05
2023-12-23T00:38:57.034Z,0.00
2023-12-23T00:41:59.208Z,0.00
2023-12-23T00:45:01.864Z,0.00
2023-12-23T00:48:04.421Z,0.00
2023-12-23T00:51:07.058Z,0.00
2023-12-23T00:54:09.597Z,0.00
2023-12-23T00:57:11.865Z,0.07
2023-12-23T01:00:14.350Z,0.00
2023-12-23T01:03:16.598Z,0.28
2023-12-23T01:06:18.898Z,0.43
2023-12-23T01:09:21.146Z,0.00
2023-12-23T01:12:23.316Z,0.47
2023-12-23T01:15:25.598Z,0.30
2023-12-23T01:18:28.266Z,0.30
2023-12-23T01:21:30.603Z,0.08
2023-12-23T01:24:32.771Z,0.30
2023-12-23T01:27:34.945Z,0.17
2023-12-23T01:30:37.429Z,0.20
2023-12-23T01:33:39.833Z,0.15
2023-12-23T01:36:42.424Z,0.00
2023-12-23T01:39:44.671Z,0.45
2023-12-23T01:42:46.907Z,0.17
2023-12-23T01:45:49.433Z,0.33
2023-12-23T01:48:52.116Z,0.40
2023-12-23T01:51:54.711Z,0.22
2023-12-23T01:54:57.044Z,0.30
2023-12-23T01:57:59.209Z,0.20
2023-12-23T02:01:01.450Z,0.27
2023-12-23T02:04:04.146Z,0.50
2023-12-23T02:07:06.467Z,0.22
2023-12-23T02:10:09.829Z,0.30
2023-12-23T02:13:18.098Z,0.40
2023-12-23T02:16:21.016Z,0.10
2023-12-23T02:19:23.183Z,0.30
2023-12-23T02:22:25.401Z,0.10
2023-12-23T02:25:27.671Z,0.15
2023-12-23T02:28:29.923Z,0.10
2023-12-23T02:31:32.881Z,0.10
2023-12-23T02:34:35.271Z,0.10
2023-12-23T02:37:37.609Z,0.10
2023-12-23T02:40:39.870Z,0.08
2023-12-23T02:43:42.188Z,0.00
2023-12-23T02:46:44.825Z,0.10
2023-12-23T02:49:47.146Z,0.00
2023-12-23T02:52:49.660Z,0.13
2023-12-23T02:55:52.120Z,0.03
2023-12-23T02:58:55.698Z,0.00
2023-12-23T03:01:58.054Z,0.10
2023-12-23T03:05:00.493Z,0.05
2023-12-23T03:08:03.112Z,0.20
2023-12-23T03:11:05.505Z,0.10
2023-12-23T03:14:07.937Z,0.10
2023-12-23T03:17:10.224Z,0.00
2023-12-23T03:20:12.568Z,0.10
2023-12-23T03:23:16.405Z,0.00
2023-12-23T03:26:19.929Z,0.08
2023-12-23T03:29:22.190Z,0.00
2023-12-23T03:32:24.485Z,0.00
2023-12-23T03:35:27.736Z,0.00
2023-12-23T03:38:29.959Z,0.00
2023-12-23T03:41:32.203Z,0.00
2023-12-23T03:44:34.429Z,0.00
2023-12-23T03:47:36.665Z,0.00
2023-12-23T03:50:38.967Z,0.00
2023-12-23T03:53:41.252Z,0.00
2023-12-23T03:56:43.443Z,0.00
2023-12-23T03:59:45.712Z,0.00
2023-12-23T04:02:48.106Z,0.00
2023-12-23T04:05:50.545Z,0.10
2023-12-23T04:08:52.736Z,0.22
2023-12-23T04:11:55.020Z,0.00
2023-12-23T04:14:57.584Z,0.00
2023-12-23T04:17:59.913Z,0.00
2023-12-23T04:21:02.225Z,0.00
2023-12-23T04:24:04.671Z,0.00
2023-12-23T04:27:06.932Z,0.00
2023-12-23T04:30:09.565Z,0.00
2023-12-23T04:33:11.909Z,0.00
2023-12-23T04:36:14.305Z,0.00
2023-12-23T04:39:16.936Z,0.00
2023-12-23T04:42:19.186Z,0.00
2023-12-23T04:45:21.906Z,0.00
2023-12-23T04:48:24.336Z,0.00
2023-12-23T04:51:26.666Z,0.00
2023-12-23T04:54:29.001Z,0.00
2023-12-23T04:57:31.232Z,0.00
2023-12-23T05:00:33.465Z,0.00
2023-12-23T05:03:35.684Z,0.00
2023-12-23T05:06:38.418Z,0.10
2023-12-23T05:09:41.370Z,0.00
2023-12-23T05:12:43.627Z,0.20
2023-12-23T05:15:45.825Z,0.00
2023-12-23T05:18:48.837Z,0.00
2023-12-23T05:21:51.083Z,0.00
2023-12-23T05:24:53.325Z,0.00
2023-12-23T05:27:55.699Z,0.00
2023-12-23T05:30:58.065Z,0.00
2023-12-23T05:34:00.385Z,0.10
2023-12-23T05:37:02.661Z,0.00
2023-12-23T05:40:06.209Z,0.00
2023-12-23T05:43:08.406Z,0.05
2023-12-23T05:46:11.070Z,0.20
2023-12-23T05:49:13.433Z,0.00
2023-12-23T05:52:15.658Z,0.00
2023-12-23T05:55:17.915Z,0.10
2023-12-23T05:58:20.327Z,0.20
2023-12-23T06:01:22.586Z,0.17
2023-12-23T06:04:24.777Z,0.00
2023-12-23T06:07:27.306Z,0.00
2023-12-23T06:10:30.461Z,0.10
2023-12-23T06:13:33.914Z,0.30
2023-12-23T06:16:41.233Z,0.00
2023-12-23T06:19:43.567Z,0.00
2023-12-23T06:22:45.886Z,0.30
2023-12-23T06:25:48.202Z,0.00
2023-12-23T06:28:50.530Z,0.13
2023-12-23T06:31:52.797Z,0.00
2023-12-23T06:34:55.017Z,0.03
2023-12-23T06:37:57.258Z,0.00
2023-12-23T06:40:59.494Z,0.10
2023-12-23T06:44:01.754Z,0.00
2023-12-23T06:47:04.086Z,0.10
2023-12-23T06:50:06.606Z,0.00
2023-12-23T06:53:10.237Z,0.10
2023-12-23T06:56:12.669Z,0.00
2023-12-23T06:59:15.014Z,0.00
2023-12-23T07:02:17.260Z,0.20
2023-12-23T07:05:19.667Z,0.00
2023-12-23T07:08:22.020Z,0.00
2023-12-23T07:11:24.847Z,0.10
2023-12-23T07:14:27.135Z,0.10
2023-12-23T07:17:38.361Z,0.00
2023-12-23T07:20:44.190Z,0.00
2023-12-23T07:23:46.554Z,0.10
2023-12-23T07:26:48.774Z,0.10
2023-12-23T07:29:51.056Z,0.00
2023-12-23T07:32:53.580Z,0.20
2023-12-23T07:35:56.209Z,0.10
2023-12-23T07:38:58.469Z,0.22
2023-12-23T07:42:01.374Z,0.00
2023-12-23T07:45:03.739Z,0.20
2023-12-23T07:48:06.415Z,0.00
2023-12-23T07:51:09.575Z,0.00
2023-12-23T07:54:11.963Z,0.00
2023-12-23T07:57:14.244Z,0.00
2023-12-23T08:00:16.767Z,0.25
2023-12-23T08:03:19.339Z,0.17
2023-12-23T08:06:21.820Z,0.00
2023-12-23T08:09:24.174Z,0.00
2023-12-23T08:12:26.439Z,0.20
2023-12-23T08:15:28.682Z,0.00
2023-12-23T08:18:31.333Z,0.10
2023-12-23T08:21:33.540Z,0.00
2023-12-23T08:24:35.877Z,0.20
2023-12-23T08:27:38.518Z,0.00
2023-12-23T08:30:40.753Z,0.10
2023-12-23T08:33:43.095Z,0.10
2023-12-23T08:36:45.343Z,0.30
2023-12-23T08:39:47.574Z,0.10
2023-12-23T08:42:49.952Z,0.10
2023-12-23T08:45:52.239Z,0.25
2023-12-23T08:48:54.668Z,0.20
2023-12-23T08:51:57.078Z,0.20
2023-12-23T08:54:59.316Z,0.20
2023-12-23T08:58:02.036Z,0.10
2023-12-23T09:01:04.452Z,0.00
2023-12-23T09:04:06.718Z,0.23
2023-12-23T09:07:09.711Z,0.30
2023-12-23T09:10:11.961Z,0.38
2023-12-23T09:13:14.202Z,0.10
2023-12-23T09:16:17.989Z,0.10
2023-12-23T09:19:21.292Z,0.00
2023-12-23T09:22:23.659Z,0.10
2023-12-23T09:25:25.958Z,0.20
2023-12-23T09:28:28.332Z,0.20
2023-12-23T09:31:31.453Z,0.20
2023-12-23T09:34:33.911Z,0.10
2023-12-23T09:37:37.696Z,0.10
2023-12-23T09:40:39.969Z,0.20
2023-12-23T09:43:42.234Z,0.20
2023-12-23T09:46:45.760Z,0.10
2023-12-23T09:49:48.116Z,0.00
2023-12-23T09:52:52.671Z,0.10
2023-12-23T09:55:55.468Z,0.10
2023-12-23T09:58:57.941Z,0.10
2023-12-23T10:02:00.151Z,0.22
2023-12-23T10:05:02.513Z,0.30
2023-12-23T10:08:05.285Z,0.10
2023-12-23T10:11:07.633Z,0.10
2023-12-23T10:14:09.932Z,0.10
2023-12-23T10:17:12.591Z,0.00
2023-12-23T10:20:15.051Z,0.43
2023-12-23T10:23:17.545Z,0.30
2023-12-23T10:26:19.897Z,0.32
2023-12-23T10:29:23.651Z,0.30
2023-12-23T10:32:27.438Z,0.20
2023-12-23T10:35:31.081Z,0.10
2023-12-23T10:38:35.177Z,0.23
2023-12-23T10:41:37.382Z,0.28
2023-12-23T10:44:42.297Z,0.10
2023-12-23T10:47:45.179Z,0.03
2023-12-23T10:50:48.523Z,0.10
2023-12-23T10:53:53.134Z,0.10
2023-12-23T10:56:56.708Z,0.03
2023-12-23T10:59:59.010Z,0.45
2023-12-23T11:03:01.953Z,0.35
2023-12-23T11:06:05.444Z,0.10
2023-12-23T11:09:08.533Z,0.50
2023-12-23T11:12:11.169Z,0.00
2023-12-23T11:15:14.130Z,0.15
2023-12-23T11:18:16.484Z,0.10
2023-12-23T11:21:20.393Z,0.10
2023-12-23T11:24:32.720Z,0.10
2023-12-23T11:27:38.768Z,0.20
2023-12-23T11:30:50.500Z,0.20
2023-12-23T11:33:53.072Z,0.85
2023-12-23T11:36:55.362Z,0.20
2023-12-23T11:40:00.708Z,0.23
2023-12-23T11:43:03.452Z,0.10
2023-12-23T11:46:05.670Z,0.15
2023-12-23T11:49:11.557Z,0.20
2023-12-23T11:52:13.933Z,0.27
2023-12-23T11:55:17.406Z,0.20
2023-12-23T11:58:19.734Z,0.10
2023-12-23T12:01:22.001Z,0.00
2023-12-23T12:04:25.751Z,0.10
2023-12-23T12:07:28.169Z,0.37
2023-12-23T12:10:30.354Z,0.20
2023-12-23T12:13:32.585Z,0.10
2023-12-23T12:16:37.272Z,0.38
2023-12-23T12:19:39.920Z,0.30
2023-12-23T12:22:46.928Z,0.00
2023-12-23T12:25:52.856Z,0.00
2023-12-23T12:28:55.867Z,0.10
2023-12-23T12:32:00.994Z,0.00
2023-12-23T12:35:03.793Z,0.38
2023-12-23T12:38:14.179Z,0.20
2023-12-23T12:41:22.417Z,0.10
2023-12-23T12:44:24.810Z,0.05
2023-12-23T12:47:30.432Z,0.00
2023-12-23T12:50:32.866Z,0.50
2023-12-23T12:53:35.183Z,0.30
2023-12-23T12:56:37.453Z,0.30
2023-12-23T12:59:39.744Z,0.15
2023-12-23T13:02:43.620Z,0.50
2023-12-23T13:05:45.966Z,0.00
2023-12-23T13:08:48.210Z,0.20
2023-12-23T13:11:50.601Z,0.00
2023-12-23T13:14:52.777Z,0.00
2023-12-23T13:17:55.216Z,0.20
2023-12-23T13:20:57.458Z,0.52
2023-12-23T13:23:59.672Z,0.37
2023-12-23T13:27:01.854Z,0.53
2023-12-23T13:30:05.197Z,0.38
2023-12-23T13:33:09.292Z,0.52
2023-12-23T13:36:11.890Z,0.68
2023-12-23T13:39:14.340Z,0.53
2023-12-23T13:42:16.826Z,0.70
2023-12-23T13:45:19.054Z,0.50
2023-12-23T13:48:23.127Z,1.13
2023-12-23T13:51:25.556Z,0.52
2023-12-23T13:54:27.938Z,0.33
2023-12-23T13:57:30.455Z,0.70
2023-12-23T14:00:33.422Z,0.98
2023-12-23T14:03:35.932Z,0.45
2023-12-23T14:06:38.292Z,1.35
2023-12-23T14:09:40.570Z,0.50
2023-12-23T14:12:42.904Z,1.37
2023-12-23T14:15:45.650Z,0.77
2023-12-23T14:18:48.085Z,1.20
2023-12-23T14:21:50.347Z,0.82
2023-12-23T14:24:52.575Z,1.17
2023-12-23T14:27:55.578Z,0.60
2023-12-23T14:30:57.909Z,0.88
2023-12-23T14:34:00.300Z,0.82
2023-12-23T14:37:02.576Z,1.13
2023-12-23T14:40:05.387Z,0.77
2023-12-23T14:43:08.617Z,0.60
2023-12-23T14:46:10.889Z,0.45
2023-12-23T14:49:13.507Z,1.42
2023-12-23T14:52:15.980Z,1.05
2023-12-23T14:55:18.332Z,1.23
2023-12-23T14:58:20.875Z,0.97
2023-12-23T15:01:23.146Z,1.38
2023-12-23T15:04:25.390Z,1.42
2023-12-23T15:07:29.010Z,1.30
2023-12-23T15:10:31.413Z,1.77
2023-12-23T15:13:38.688Z,1.30
2023-12-23T15:16:42.106Z,1.42
2023-12-23T15:19:44.334Z,1.00
2023-12-23T15:22:46.699Z,1.27
2023-12-23T15:25:49.018Z,1.00
2023-12-23T15:28:51.257Z,1.10
2023-12-23T15:31:53.488Z,1.63
2023-12-23T15:34:55.699Z,1.60
2023-12-23T15:37:58.083Z,0.80
2023-12-23T15:41:00.731Z,0.70
2023-12-23T15:44:03.002Z,0.90
2023-12-23T15:47:05.522Z,1.50
2023-12-23T15:50:08.072Z,0.95
2023-12-23T15:53:11.387Z,1.00
2023-12-23T15:56:14.311Z,0.90
2023-12-23T15:59:17.061Z,1.87
2023-12-23T16:02:19.406Z,0.93
2023-12-23T16:05:21.786Z,1.58
2023-12-23T16:08:24.108Z,0.75
2023-12-23T16:11:26.473Z,0.80
2023-12-23T16:14:28.797Z,1.10
2023-12-23T16:17:31.247Z,0.98
2023-12-23T16:20:33.582Z,1.00
2023-12-23T16:23:35.929Z,0.90
2023-12-23T16:26:38.314Z,1.10
2023-12-23T16:29:43.552Z,1.23
2023-12-23T16:32:45.989Z,0.90
2023-12-23T16:35:48.467Z,0.75
2023-12-23T16:38:50.766Z,1.63
2023-12-23T16:41:52.980Z,1.93
2023-12-23T16:44:55.750Z,1.03
2023-12-23T16:47:58.116Z,1.38
2023-12-23T16:51:00.437Z,1.40
2023-12-23T16:54:02.940Z,2.10
2023-12-23T16:57:05.274Z,1.07
2023-12-23T17:00:08.599Z,0.83
2023-12-23T17:03:10.946Z,1.35
2023-12-23T17:06:13.323Z,1.13
2023-12-23T17:09:15.770Z,1.27
2023-12-23T17:12:18.056Z,0.73
2023-12-23T17:15:20.248Z,0.40
2023-12-23T17:18:22.554Z,1.58
2023-12-23T17:21:24.880Z,1.00
2023-12-23T17:24:27.108Z,0.88
2023-12-23T17:27:29.427Z,0.87
2023-12-23T17:30:31.778Z,1.43
2023-12-23T17:33:34.110Z,1.55
2023-12-23T17:36:37.803Z,1.23
2023-12-23T17:39:40.061Z,1.40
2023-12-23T17:42:42.446Z,1.97
2023-12-23T17:45:44.674Z,1.63
2023-12-23T17:48:46.882Z,1.60
2023-12-23T17:51:49.137Z,1.48
2023-12-23T17:54:51.480Z,1.55
2023-12-23T17:57:53.820Z,1.23
2023-12-23T18:00:56.062Z,1.70
2023-12-23T18:03:58.388Z,1.50
2023-12-23T18:07:00.625Z,1.08
2023-12-23T18:10:04.265Z,0.88
2023-12-23T18:13:08.987Z,1.00
2023-12-23T18:16:11.387Z,1.50
2023-12-23T18:19:13.600Z,2.00
2023-12-23T18:22:15.838Z,2.47
2023-12-23T18:25:18.148Z,2.17
2023-12-23T18:28:20.385Z,2.10
2023-12-23T18:31:22.913Z,3.30
2023-12-23T18:34:25.808Z,2.78
2023-12-23T18:37:28.134Z,3.47
2023-12-23T18:40:30.421Z,2.65
2023-12-23T18:43:32.779Z,2.10
2023-12-23T18:46:35.011Z,2.80
2023-12-23T18:49:37.232Z,3.30
2023-12-23T18:52:39.510Z,2.00
2023-12-23T18:55:41.798Z,2.65
2023-12-23T18:58:44.137Z,2.53
2023-12-23T19:01:46.425Z,2.63
2023-12-23T19:04:48.648Z,2.75
2023-12-23T19:07:51.858Z,3.60
2023-12-23T19:10:57.060Z,3.28
2023-12-23T19:13:59.554Z,3.20
2023-12-23T19:17:01.859Z,2.20
2023-12-23T19:20:04.413Z,4.13
2023-12-23T19:23:08.858Z,2.50
2023-12-23T19:26:11.435Z,2.83
2023-12-23T19:29:13.715Z,3.20
2023-12-23T19:32:16.415Z,3.27
2023-12-23T19:35:19.621Z,2.30
2023-12-23T19:38:23.321Z,2.55
2023-12-23T19:41:25.622Z,1.90
2023-12-23T19:44:28.568Z,2.47
2023-12-23T19:47:31.897Z,2.73
2023-12-23T19:50:34.164Z,2.95
2023-12-23T19:53:36.489Z,2.20
2023-12-23T19:56:39.199Z,2.15
2023-12-23T19:59:41.742Z,2.00
2023-12-23T20:02:44.012Z,2.53
2023-12-23T20:05:46.466Z,2.22
2023-12-23T20:08:48.863Z,2.35
2023-12-23T20:11:52.744Z,1.25
2023-12-23T20:14:54.976Z,2.00
2023-12-23T20:17:57.402Z,3.00
2023-12-23T20:20:59.687Z,2.85
2023-12-23T20:24:05.164Z,2.10
2023-12-23T20:27:07.741Z,3.45
2023-12-23T20:30:10.138Z,2.20
2023-12-23T20:33:14.772Z,2.30
2023-12-23T20:36:17.244Z,1.63
2023-12-23T20:39:26.611Z,1.85
2023-12-23T20:42:30.796Z,1.30
2023-12-23T20:45:33.068Z,1.50
2023-12-23T20:48:35.442Z,2.07
2023-12-23T20:51:38.589Z,1.00
2023-12-23T20:54:40.805Z,0.60
2023-12-23T20:57:43.032Z,1.23
2023-12-23T21:00:45.299Z,0.67
2023-12-23T21:03:47.918Z,0.63
2023-12-23T21:06:51.137Z,0.70
2023-12-23T21:09:55.262Z,0.68
2023-12-23T21:13:00.811Z,0.55
2023-12-23T21:16:02.996Z,0.70
2023-12-23T21:19:05.423Z,0.70
2023-12-23T21:22:07.734Z,0.57
2023-12-23T21:25:09.994Z,0.50
2023-12-23T21:28:12.241Z,0.50
2023-12-23T21:31:14.722Z,0.70
2023-12-23T21:34:17.363Z,0.70
2023-12-23T21:37:19.659Z,0.60
2023-12-23T21:40:21.884Z,0.30
2023-12-23T21:43:24.452Z,0.13
2023-12-23T21:46:29.008Z,0.30
2023-12-23T21:49:31.403Z,0.30
2023-12-23T21:52:33.679Z,0.38
2023-12-23T21:55:35.859Z,0.40
2023-12-23T21:58:39.230Z,0.13
2023-12-23T22:01:41.445Z,0.07
2023-12-23T22:04:43.673Z,0.43
2023-12-23T22:07:45.984Z,0.60
2023-12-23T22:10:48.257Z,0.32
2023-12-23T22:13:51.074Z,0.30
2023-12-23T22:16:53.337Z,0.30
2023-12-23T22:19:55.696Z,0.40
2023-12-23T22:22:58.155Z,0.40
2023-12-23T22:26:00.386Z,0.52
2023-12-23T22:29:02.621Z,0.30
2023-12-23T22:32:05.081Z,0.33
2023-12-23T22:35:07.628Z,0.10
2023-12-23T22:38:09.878Z,0.60
2023-12-23T22:41:12.122Z,0.10
2023-12-23T22:44:14.371Z,0.30
2023-12-23T22:47:16.589Z,0.00
2023-12-23T22:50:18.998Z,0.40
2023-12-23T22:53:21.469Z,0.20
2023-12-23T22:56:23.748Z,0.05
2023-12-23T22:59:26.266Z,0.20
2023-12-23T23:02:28.744Z,0.00
2023-12-23T23:05:31.294Z,0.20
2023-12-23T23:08:33.587Z,0.22
2023-12-23T23:11:35.954Z,0.20
2023-12-23T23:14:39.247Z,0.17
2023-12-23T23:17:41.820Z,0.03
2023-12-23T23:20:44.216Z,0.10
2023-12-23T23:23:46.462Z,0.45
2023-12-23T23:26:48.970Z,0.80
2023-12-23T23:29:52.985Z,0.20
2023-12-23T23:32:55.611Z,0.13
2023-12-23T23:35:58.018Z,0.10
2023-12-23T23:39:00.308Z,0.10
2023-12-23T23:42:02.590Z,0.20
2023-12-23T23:45:05.016Z,0.28
2023-12-23T23:48:07.486Z,0.17
2023-12-23T23:51:16.466Z,0.30
2023-12-23T23:54:18.694Z,0.00
2023-12-23T23:57:20.914Z,0.10
